Dernières infos :  

11/12/2017  Mise à jour des tableaux d'analyses décadaires : rubrique climatologie
01/12/2017  Mise à jour des tableaux d'analyses décadaires, mensuelles et annuelles : rubrique climatologie
01/12/2017 Mise en ligne de la synthèse climatologique de Novembre 2017 : 
CLIQUEZ ICI   

Si l'entête du tableau ne s'affiche pas correctement, => actualisez la page (F5 avec Internet Explorer, Chrome...).
Utilisez l'ascenseur sur la droite des lignes du tableau pour faire défiler verticalement les jours du mois.

TABLEAU DES DONNEES COMPLETES NOAA d'AOUT2017

DATE TEMPERATURE
sous abri
TEMPARATURE 
au sol
VENT  et  Indice de Refroidissement Eolien  PRECIPITATIONS (en mm/m2)
et Intensité
PRESSION ATMOSPHERIQUE (en hPa) HUMIDITE de l'AIR RADIATIONS SOLAIRES (en W/m2)
Mini Moy. Maxi Mini Moy. Maxi Moyen Rafale I.R.E.
Minii
Précip. jour Cumul mois Intensité Maxi Mini Moy. Maxi Mini Moy. Maxi Pic maxi du jour Total jour
01/08/17 19.7° 24.7° 29.8° 16.7° 25.7° 40.6° 5.1km/h dir NNE 24.1km/h dir ONO 19.7° 0.2 0.2 1009.7 1012.4 1017 50% 69.3% 87% 851 54 949
02/08/17 18.7° 26.6° 35.2° 17.8° 29.3° 46.7° 3.5km/h dir SSE 29km/h dir S 18.7° 0 0.2 1012.7 1016.2 1018.8 41% 70% 96% 856 73 414
03/08/17 21.9° 27.9° 33° 19.4° 29.8° 46.7° 5.5km/h dir SE 24.1km/h dir NO 21.9° 0 0.2 1012.3 1013.7 1015 47% 60.2% 78% 789 72 014
04/08/17 21.2° 25.1° 29.9° 20° 28.3° 46.1° 5.6km/h dir NNE 22.5km/h dir N 21.2° 0 0.2 1014.1 1015 1016 50% 68.3% 84% 1165 70 270
05/08/17 17.6° 23.8° 30.2° 16.7° 25.8° 46.7° 5.5km/h dir NO 30.6km/h dir ONO 17.6° 0 0.2 1014.5 1015.6 1018.7 54% 68.5% 91% 1151 27 779
06/08/17 15.7° 21° 26.8° 14.4° 24.3° 42.8° 9km/h dir NO 33.8km/h dir ONO 15.7° 0 0.2 1018.3 1019.2 1020.5 36% 60.3% 85% 909 37 677
07/08/17 11.1° 20.5° 29.3° 9.4° 24.1° 46.1° 3.4km/h dir N 19.3km/h dir SO 11.1° 0 0.2 1010.8 1014.6 1018.3 31% 58.4% 87% 837 38 836
08/08/17 17.1° 18.6° 21.8° 15.6° 18.3° 29.4° 4.5km/h dir SSE 29km/h dir ESE 16.8° 20.8 21 92.2mm/h 1008.4 1012 1015.9 66% 86.1% 95% 670 9 345
09/08/17 12.7° 18.3° 24.1° 12.8° 21.4° 43.9° 3.5km/h dir O 20.9km/h dir ONO 12.7° 0 21 1015 1016 1018.7 47% 71.6% 95% 1076 29 113
10/08/17 10.6° 17.2° 22.5° 10.6° 21.4° 42.8° 4.3km/h dir ONO 19.3km/h dir O 10.6° 0 21 1016.7 1018.5 1019.7 44% 65% 89% 1042 34 922
11/08/17 12.1° 14.8° 19.1° 12.2° 16.6° 29.4° 4.5km/h dir O 20.9km/h dir ONO 12° 18.2 39.2 52.6mm/h 1017.1 1018.9 1021.1 64% 85.7% 95% 925 17 751
12/08/17 11.6° 17.8° 24.2° 11.1° 21.5° 43.3° 2.7km/h dir SSE 16.1km/h dir N 11.6° 0 39.2 1020 1021.1 1022.1 48% 74% 95% 972 32 978
13/08/17 13.3° 19.4° 25.4° 13.3° 23.9° 43.9° 3.1km/h dir ONO 22.5km/h dir ONO 13.3° 0 39.2 1018.1 1019.3 1020.9 57% 73.7% 93% 1099 51 068
14/08/17 13.2° 22.6° 31.3° 12.8° 25° 41.7° 5.3km/h dir SSE 29km/h dir S 13.2° 0 39.2 1013.9 1016.6 1018.4 38% 68.4% 96% 847 72 844
15/08/17 19.1° 24.1° 31.4° 17.8° 24.9° 42.8° 8.4km/h dir SSE 37km/h dir ESE 19.1° 4.6 43.8 8mm/h 1015.6 1016.9 1019.3 33% 58.5% 93% 979 55 491
16/08/17 16.9° 22.3° 27.9° 16.1° 24.4° 41.7° 3.2km/h dir N 14.5km/h dir N 16.9° 0.2 44 1017.4 1018.7 1019.8 58% 80.1% 96% 819 57 643
17/08/17 17.1° 23.2° 30.2° 16.7° 26.3° 46.7° 2.4km/h dir O 19.3km/h dir SO 17.1° 0 44 1016.3 1017.9 1019.2 45% 73.1% 95% 824 69 728
18/08/17 16.1° 21.1° 29.1° 15.6° 22.9° 44.4° 3.9km/h dir ESE 35.4km/h dir O 16.1° 1 45 22.6mm/h 1012.9 1016 1018.9 54% 79.2% 95% 1032 45 664
19/08/17 14.1° 18.6° 24.2° 11.7° 21.3° 42.8° 4.7km/h dir ONO 22.5km/h dir NE 14.2° 0.2 45.2 1018.5 1020.1 1022.3 40% 71.1% 95% 1035 62 845
20/08/17 9.3° 16.9° 24.1° 8.9° 19.9° 41.1° 6.4km/h dir NO 30.6km/h dir NO 9.3° 0 45.2 1022.2 1023.1 1024.6 40% 66% 93% 926 72 586
21/08/17 8.5° 17.9° 26.2° 8.3° 21.4° 45.6° 4.2km/h dir NNE 22.5km/h dir N 8.5° 0 45.2 1019.1 1021.7 1023.6 43% 66.6% 93% 800 71 569
22/08/17 11.9° 21.4° 31.9° 11.1° 23.9° 47.2° 1.8km/h dir NE 12.9km/h dir S 11.9° 0 45.2 1013.7 1017 1019.4 38% 68.2% 94% 796 70 748
23/08/17 16.9° 24.6° 32.9° 14.4° 25.9° 46.1° 3.5km/h dir SSE 20.9km/h dir N 16.9° 0 45.2 1013 1014.2 1015.7 39% 64.6% 87% 849 64 957
24/08/17 16.9° 22.1° 28.7° 15.6° 21.7° 31.7° 4km/h dir SSE 27.4km/h dir S 16.9° 1.4 46.6 2.6mm/h 1014.9 1015.9 1017.9 55% 78.8% 94% 807 37 422
25/08/17 20.8° 26° 32.7° 19.4° 26.1° 34.4° 11.4km/h dir SSE 43.5km/h dir S 20.8° 0 46.6 1012.9 1015 1016.5 31% 52.2% 73% 930 65 474
26/08/17 20.6° 27° 34.2° 18.3° 26.9° 36.7° 9.3km/h dir SSE 45.1km/h dir SSE 20.6° 0 46.6 1012.2 1014.3 1015.6 23% 43.7% 66% 838 66 115
27/08/17 21.7° 26.9° 32.5° 18.9° 26.5° 36.7° 5km/h dir SSE 29km/h dir S 21.8° 0 46.6 1012.9 1014.4 1016.2 39% 53.8% 75% 766 41 710
28/08/17 18° 24.5° 33.1° 16.1° 24.5° 37.2° 3.1km/h dir N 19.3km/h dir N 18.1° 0 46.6 1012 1013.9 1015.6 41% 68.1% 89% 972 50 882
29/08/17 15.8° 25.4° 35.1° 14.4° 25.4° 38.9° 3.7km/h dir SSE 27.4km/h dir ESE 15.8° 0 46.6 1009.5 1011.5 1013 30% 62.4% 94% 735 63 329
30/08/17 19° 24.8° 31.1° 18.3° 24.6° 33.9° 8.5km/h dir SSE 38.6km/h dir 0 19° 5.8 52.4 79.4mm/h 1008.2 1010.5 1012.7 43% 64.7% 95% 810 33 878
31/08/17 13.4° 16.1° 19.2° 12.8° 16.1° 18.9° 4.7km/h dir ONO 32.2km/h dir 0 13.4° 33.6 86 73.8mm/h 1010.8 1017.2 1020.8 92% 94.5% 96% 213 11 316

RETOUR ACCUEIL


Date de création : 01/09/2017 : 21:15
Catégorie : ANNEE 2017 - MOIS PASSES - AOUT 2017
Page lue 144 fois


Réactions à cet article

Personne n'a encore laissé de commentaire.
Soyez donc le premier !